Time;durP1;ratioP1;P1;durP2;ratioP2;P2;SDS_P1;SDS_P2;PMS_P1;PMS_P2;Temp;Humidity;BMP_temperature;BMP_pressure;BME280_temperature;BME280_humidity;BME280_pressure;Samples;Min_cycle;Max_cycle;Signal;HPM_P1;HPM_P2
2023/03/05 00:00:13;;;;;;;7.82;1.58;;;3.80;99.90;;;;;;5023635;28;20122;-72
2023/03/05 00:02:39;;;;;;;6.32;1.33;;;3.80;99.90;;;;;;5025392;28;20036;-74
2023/03/05 00:05:05;;;;;;;6.45;1.15;;;3.80;99.90;;;;;;5026115;28;20029;-73
2023/03/05 00:07:31;;;;;;;12.52;1.50;;;3.90;99.90;;;;;;5021865;28;20022;-73
2023/03/05 00:10:02;;;;;;;6.70;1.27;;;3.90;99.90;;;;;;5024732;28;20418;-75
2023/03/05 00:12:28;;;;;;;11.15;1.27;;;3.90;99.90;;;;;;5021378;28;20036;-74
2023/03/05 00:14:54;;;;;;;6.47;1.13;;;3.90;99.90;;;;;;5024105;28;20018;-73
2023/03/05 00:17:19;;;;;;;9.35;1.88;;;3.90;99.90;;;;;;5021944;28;20052;-73
2023/03/05 00:19:45;;;;;;;4.32;0.90;;;3.80;99.90;;;;;;5018402;28;20036;-73
2023/03/05 00:22:11;;;;;;;7.18;1.15;;;3.80;99.90;;;;;;5002000;28;20048;-74
2023/03/05 00:24:37;;;;;;;8.93;2.17;;;3.80;99.90;;;;;;5018541;28;20112;-72
2023/03/05 00:27:02;;;;;;;5.88;1.25;;;3.80;99.90;;;;;;5019592;28;20021;-73
2023/03/05 00:29:29;;;;;;;6.65;1.00;;;3.80;99.90;;;;;;5020169;28;20032;-73
2023/03/05 00:31:54;;;;;;;8.80;1.08;;;3.80;99.90;;;;;;5015650;28;20022;-74
2023/03/05 00:34:20;;;;;;;6.65;1.08;;;3.80;99.90;;;;;;5008166;28;20025;-73
2023/03/05 00:36:49;;;;;;;3.08;1.13;;;3.70;99.90;;;;;;5021230;28;20372;-75
2023/03/05 00:39:16;;;;;;;7.10;1.40;;;3.80;99.90;;;;;;5026254;28;20167;-74
2023/03/05 00:41:42;;;;;;;10.50;1.30;;;3.80;99.90;;;;;;5019648;28;20037;-74
2023/03/05 00:44:08;;;;;;;13.13;1.58;;;3.70;99.90;;;;;;5020502;28;20036;-73
2023/03/05 00:46:34;;;;;;;5.10;1.35;;;3.70;99.90;;;;;;5018245;28;20036;-73
2023/03/05 00:49:00;;;;;;;7.18;1.20;;;3.70;99.90;;;;;;5019237;28;20026;-72
2023/03/05 00:51:26;;;;;;;6.80;1.15;;;3.50;99.90;;;;;;5012345;28;20457;-72
2023/03/05 00:53:52;;;;;;;6.47;1.25;;;3.50;99.90;;;;;;5018441;28;20018;-74
2023/03/05 00:56:18;;;;;;;7.90;1.55;;;3.40;99.90;;;;;;5015575;28;20492;-73
2023/03/05 00:58:43;;;;;;;7.78;1.38;;;3.40;99.90;;;;;;5019388;28;20030;-72
2023/03/05 01:01:09;;;;;;;9.55;1.63;;;3.40;99.90;;;;;;4997695;28;20072;-73
2023/03/05 01:03:35;;;;;;;10.48;1.63;;;3.40;99.90;;;;;;5028683;28;20076;-72
2023/03/05 01:06:05;;;;;;;8.10;1.70;;;3.40;99.90;;;;;;5014834;28;20041;-72
2023/03/05 01:08:31;;;;;;;9.18;1.60;;;3.40;99.90;;;;;;5021277;28;20181;-72
2023/03/05 01:10:57;;;;;;;31.55;4.40;;;3.50;99.90;;;;;;5022025;28;20070;-72
2023/03/05 01:13:22;;;;;;;5.95;1.75;;;3.40;99.90;;;;;;5021973;28;20492;-72
2023/03/05 01:15:49;;;;;;;9.43;1.25;;;3.40;99.90;;;;;;5012918;28;20541;-73
2023/03/05 01:18:16;;;;;;;12.23;1.40;;;3.40;99.90;;;;;;5019242;28;20029;-73
2023/03/05 01:20:42;;;;;;;14.50;1.75;;;3.40;99.90;;;;;;5016469;28;20037;-73
2023/03/05 01:23:08;;;;;;;8.75;1.10;;;3.40;99.90;;;;;;5018785;28;20052;-73
2023/03/05 01:25:34;;;;;;;9.27;1.80;;;3.40;99.90;;;;;;5011327;28;20103;-74
2023/03/05 01:28:00;;;;;;;13.93;2.63;;;3.40;99.90;;;;;;5017227;28;20048;-74
2023/03/05 01:30:25;;;;;;;9.68;2.03;;;3.30;99.90;;;;;;5023565;28;20025;-74
2023/03/05 01:32:51;;;;;;;9.95;1.90;;;3.40;99.90;;;;;;5017768;28;20026;-73
2023/03/05 01:35:21;;;;;;;12.68;2.10;;;3.30;99.90;;;;;;5023710;28;20021;-72
2023/03/05 01:37:47;;;;;;;5.75;1.55;;;3.30;99.90;;;;;;5010571;28;20034;-72
2023/03/05 01:40:16;;;;;;;14.63;2.28;;;3.30;99.90;;;;;;5011978;28;20033;-72
2023/03/05 01:42:54;;;;;;;9.13;2.38;;;3.30;99.90;;;;;;5017710;28;20490;-72
2023/03/05 01:45:20;;;;;;;7.22;2.85;;;3.30;99.90;;;;;;5009829;28;20034;-73
2023/03/05 01:47:45;;;;;;;8.95;1.90;;;3.30;99.90;;;;;;5009488;28;20030;-71
2023/03/05 01:50:16;;;;;;;6.32;1.85;;;3.30;99.90;;;;;;5009657;28;20572;-72
2023/03/05 01:52:48;;;;;;;7.00;1.50;;;3.30;99.90;;;;;;5010997;28;20029;-73
2023/03/05 01:55:20;;;;;;;7.55;1.42;;;3.30;99.90;;;;;;5015705;28;20528;-73
2023/03/05 01:57:54;;;;;;;10.20;1.45;;;3.30;99.90;;;;;;5016452;28;20034;-72
2023/03/05 02:00:26;;;;;;;4.38;1.52;;;3.30;99.90;;;;;;5029068;28;20021;-72
2023/03/05 02:02:52;;;;;;;7.70;1.40;;;3.30;99.90;;;;;;5010774;28;20026;-72
2023/03/05 02:05:25;;;;;;;7.25;1.30;;;3.30;99.90;;;;;;5011629;28;20038;-72
2023/03/05 02:07:56;;;;;;;7.03;1.10;;;3.30;99.90;;;;;;5022551;28;20460;-74
2023/03/05 02:10:24;;;;;;;4.53;0.95;;;3.30;99.90;;;;;;5029203;28;20025;-72
2023/03/05 02:12:52;;;;;;;7.25;0.90;;;3.20;99.90;;;;;;5029056;28;20037;-73
2023/03/05 02:15:18;;;;;;;10.77;1.88;;;3.10;99.90;;;;;;5022357;28;20021;-74
2023/03/05 02:17:44;;;;;;;6.13;1.08;;;3.10;99.90;;;;;;5028831;28;20033;-72
2023/03/05 02:20:17;;;;;;;3.25;1.00;;;3.00;99.90;;;;;;5028214;28;20080;-74
2023/03/05 02:22:43;;;;;;;5.07;1.10;;;3.00;99.90;;;;;;5027649;28;20567;-74
2023/03/05 02:25:25;;;;;;;4.65;1.00;;;2.90;99.90;;;;;;5026767;28;20428;-72
2023/03/05 02:27:57;;;;;;;6.22;1.15;;;2.80;99.90;;;;;;5025617;28;20080;-72
2023/03/05 02:30:23;;;;;;;10.25;1.50;;;2.70;99.90;;;;;;5010594;28;20025;-73
2023/03/05 02:32:49;;;;;;;8.20;1.65;;;2.80;99.90;;;;;;5025929;28;20670;-72
2023/03/05 02:35:15;;;;;;;4.97;1.10;;;2.80;99.90;;;;;;5026302;28;20017;-73
2023/03/05 02:37:41;;;;;;;4.40;1.30;;;2.80;99.90;;;;;;5026187;28;20464;-72
2023/03/05 02:40:09;;;;;;;7.00;1.50;;;2.90;99.90;;;;;;5028275;28;20037;-73
2023/03/05 02:42:34;;;;;;;5.50;1.00;;;2.90;99.90;;;;;;5027298;28;20029;-73
2023/03/05 02:45:01;;;;;;;7.28;1.25;;;2.90;99.90;;;;;;5027158;28;20076;-72
2023/03/05 02:47:27;;;;;;;3.45;1.55;;;2.90;99.90;;;;;;5025275;28;20029;-72
2023/03/05 02:49:54;;;;;;;4.07;1.45;;;2.90;99.90;;;;;;5026404;28;20125;-72
2023/03/05 02:52:22;;;;;;;2.13;1.00;;;2.90;99.90;;;;;;5022103;28;20029;-74
2023/03/05 02:54:48;;;;;;;5.47;1.45;;;2.90;99.90;;;;;;5031287;28;20032;-73
2023/03/05 02:57:15;;;;;;;6.20;1.48;;;2.90;99.90;;;;;;5024240;28;20045;-75
2023/03/05 02:59:41;;;;;;;5.18;1.38;;;2.90;99.90;;;;;;5013940;28;20051;-75
2023/03/05 03:02:06;;;;;;;9.35;1.20;;;2.90;99.90;;;;;;5029860;28;20030;-73
2023/03/05 03:04:32;;;;;;;6.18;1.45;;;2.90;99.90;;;;;;5029746;28;20090;-72
2023/03/05 03:06:58;;;;;;;5.55;1.20;;;2.90;99.90;;;;;;5030499;28;20033;-73
2023/03/05 03:09:25;;;;;;;4.15;1.40;;;2.90;99.90;;;;;;5027077;28;20557;-73
2023/03/05 03:11:51;;;;;;;5.75;1.48;;;2.80;99.90;;;;;;5027935;28;20021;-74
2023/03/05 03:14:17;;;;;;;6.38;1.50;;;2.80;99.90;;;;;;5014885;28;20441;-75
2023/03/05 03:16:43;;;;;;;7.18;1.85;;;2.80;99.90;;;;;;5033418;28;20056;-74
2023/03/05 03:19:09;;;;;;;3.80;1.30;;;2.70;99.90;;;;;;5030203;28;20105;-73
2023/03/05 03:21:35;;;;;;;8.98;1.55;;;2.70;99.90;;;;;;5027604;28;20453;-73
2023/03/05 03:24:00;;;;;;;5.20;1.40;;;2.70;99.90;;;;;;5027047;28;20057;-74
2023/03/05 03:26:27;;;;;;;5.68;1.77;;;2.70;99.90;;;;;;5026441;28;20030;-73
2023/03/05 03:28:52;;;;;;;4.90;1.88;;;2.70;99.90;;;;;;5028614;28;20124;-72
2023/03/05 03:31:18;;;;;;;8.98;2.08;;;2.70;99.90;;;;;;5028878;28;20112;-72
2023/03/05 03:33:44;;;;;;;8.25;2.13;;;2.60;99.90;;;;;;5026358;28;20104;-74
2023/03/05 03:36:10;;;;;;;8.40;1.98;;;2.60;99.90;;;;;;5002963;28;20037;-74
2023/03/05 03:38:36;;;;;;;6.20;1.60;;;2.60;99.90;;;;;;5027393;28;20457;-74
2023/03/05 03:41:05;;;;;;;6.68;2.00;;;2.60;99.90;;;;;;5026647;28;20033;-73
2023/03/05 03:43:30;;;;;;;5.50;1.45;;;2.60;99.90;;;;;;5028073;28;20075;-73
2023/03/05 03:45:56;;;;;;;7.68;2.00;;;2.60;99.90;;;;;;5024189;28;20020;-74
2023/03/05 03:48:22;;;;;;;3.58;1.27;;;2.60;99.90;;;;;;5026836;28;20150;-72
2023/03/05 03:50:47;;;;;;;8.90;1.83;;;2.60;99.90;;;;;;5025789;28;20021;-74
2023/03/05 03:53:13;;;;;;;7.82;1.73;;;2.60;99.90;;;;;;5023355;28;20036;-73
2023/03/05 03:55:45;;;;;;;3.90;1.70;;;2.50;99.90;;;;;;5023797;28;20060;-74
2023/03/05 03:58:11;;;;;;;4.80;1.90;;;2.50;99.90;;;;;;5022556;28;20512;-74
2023/03/05 04:00:38;;;;;;;4.80;1.95;;;2.50;99.90;;;;;;5024778;28;20029;-72
2023/03/05 04:03:03;;;;;;;8.65;2.42;;;2.50;99.90;;;;;;5024612;28;20029;-72
2023/03/05 04:05:29;;;;;;;7.18;1.80;;;2.60;99.90;;;;;;5022049;28;20045;-72
2023/03/05 04:07:57;;;;;;;6.43;1.45;;;2.60;99.90;;;;;;5021227;28;20037;-72
2023/03/05 04:10:23;;;;;;;4.60;1.63;;;2.60;99.90;;;;;;5021846;28;20494;-72
2023/03/05 04:12:49;;;;;;;7.60;1.83;;;2.60;99.90;;;;;;5026892;28;20390;-72
2023/03/05 04:15:15;;;;;;;5.50;1.88;;;2.60;99.90;;;;;;5022459;28;20026;-72
2023/03/05 04:17:40;;;;;;;6.22;1.13;;;2.60;99.90;;;;;;5025418;28;20034;-72
2023/03/05 04:20:09;;;;;;;6.03;1.48;;;2.50;99.90;;;;;;5024819;28;20497;-72
2023/03/05 04:22:35;;;;;;;6.18;1.40;;;2.60;99.90;;;;;;5020343;28;20453;-72
2023/03/05 04:25:05;;;;;;;6.03;1.30;;;2.50;99.90;;;;;;5020899;28;20110;-72
2023/03/05 04:27:33;;;;;;;6.22;1.20;;;2.60;99.90;;;;;;5024593;28;20595;-72
2023/03/05 04:29:59;;;;;;;9.38;1.83;;;2.60;99.90;;;;;;5043355;28;20038;-72
2023/03/05 04:32:28;;;;;;;6.43;1.05;;;2.60;99.90;;;;;;5014035;28;20041;-72
2023/03/05 04:34:57;;;;;;;3.70;1.05;;;2.60;99.90;;;;;;5017702;28;20112;-73
2023/03/05 04:37:24;;;;;;;5.38;1.45;;;2.50;99.90;;;;;;5024069;28;20088;-72
2023/03/05 04:39:51;;;;;;;6.65;1.40;;;2.60;99.90;;;;;;5012043;28;20026;-73
2023/03/05 04:42:20;;;;;;;13.32;1.92;;;2.60;99.90;;;;;;5027122;28;20025;-72
2023/03/05 04:44:48;;;;;;;9.18;1.35;;;2.60;99.90;;;;;;5019766;28;20393;-72
2023/03/05 04:47:14;;;;;;;6.47;1.42;;;2.70;99.90;;;;;;5020023;28;20037;-72
2023/03/05 04:49:40;;;;;;;5.68;1.52;;;2.70;99.90;;;;;;5017951;28;20026;-73
2023/03/05 04:52:06;;;;;;;9.38;1.80;;;2.70;99.90;;;;;;5001132;28;20037;-72
2023/03/05 04:54:32;;;;;;;4.82;1.20;;;2.70;99.90;;;;;;4997573;28;20029;-73
2023/03/05 04:56:57;;;;;;;8.23;1.85;;;2.80;99.90;;;;;;5021914;28;20120;-72
2023/03/05 04:59:23;;;;;;;6.10;1.40;;;2.70;99.90;;;;;;5021766;28;20434;-73
2023/03/05 05:01:49;;;;;;;7.32;1.40;;;2.80;99.90;;;;;;5021243;28;20035;-72
2023/03/05 05:04:15;;;;;;;6.13;1.75;;;2.70;99.90;;;;;;5017158;28;20109;-73
2023/03/05 05:06:40;;;;;;;6.85;1.55;;;2.70;99.90;;;;;;5017914;28;20029;-73
2023/03/05 05:09:06;;;;;;;4.40;1.52;;;2.80;99.90;;;;;;5016868;28;20125;-73
2023/03/05 05:11:32;;;;;;;4.38;1.45;;;2.80;99.90;;;;;;5022134;28;20080;-72
2023/03/05 05:13:57;;;;;;;3.10;1.45;;;2.80;99.90;;;;;;5029483;28;20469;-73
2023/03/05 05:16:23;;;;;;;4.85;1.45;;;2.80;99.90;;;;;;5022322;28;20097;-73
2023/03/05 05:18:49;;;;;;;3.45;1.08;;;2.70;99.90;;;;;;5020381;28;20437;-73
2023/03/05 05:21:17;;;;;;;5.55;1.00;;;2.70;99.90;;;;;;5018449;28;20040;-72
2023/03/05 05:23:43;;;;;;;9.68;1.10;;;2.70;99.90;;;;;;5024732;28;20397;-73
2023/03/05 05:26:13;;;;;;;9.88;1.83;;;2.60;99.90;;;;;;5020734;28;20025;-73
2023/03/05 05:28:41;;;;;;;4.97;1.33;;;2.60;99.90;;;;;;5028056;28;20519;-72
2023/03/05 05:31:12;;;;;;;6.07;1.23;;;2.60;99.90;;;;;;5021689;28;20097;-72
2023/03/05 05:33:38;;;;;;;6.82;1.58;;;2.60;99.90;;;;;;5017003;28;20026;-77
2023/03/05 05:36:06;;;;;;;3.15;0.85;;;2.60;99.90;;;;;;5023910;28;20140;-74
2023/03/05 05:38:33;;;;;;;6.63;1.02;;;2.60;99.90;;;;;;5020696;28;20026;-73
2023/03/05 05:41:04;;;;;;;9.57;1.77;;;2.70;99.90;;;;;;5005625;28;20040;-75
2023/03/05 05:43:31;;;;;;;4.57;1.10;;;2.60;99.90;;;;;;5014494;28;20030;-74
2023/03/05 05:46:02;;;;;;;3.72;0.85;;;2.60;99.90;;;;;;5023718;28;20037;-74
2023/03/05 05:48:32;;;;;;;9.48;1.10;;;2.60;99.90;;;;;;5018033;28;20026;-74
2023/03/05 05:50:58;;;;;;;3.97;0.77;;;2.60;99.90;;;;;;5016258;28;20353;-74
2023/03/05 05:53:25;;;;;;;8.25;1.10;;;2.60;99.90;;;;;;4995813;28;20041;-73
2023/03/05 05:55:51;;;;;;;9.38;1.02;;;2.60;99.90;;;;;;5003438;28;20034;-74
2023/03/05 05:58:17;;;;;;;9.43;1.17;;;2.70;99.90;;;;;;5025370;28;20532;-73
2023/03/05 06:00:43;;;;;;;3.53;0.70;;;2.70;99.90;;;;;;5001601;28;20025;-73
2023/03/05 06:03:09;;;;;;;6.95;0.95;;;2.60;99.90;;;;;;5011186;28;20026;-72
2023/03/05 06:05:35;;;;;;;5.40;0.80;;;2.60;99.90;;;;;;5021359;28;20505;-72
2023/03/05 06:08:00;;;;;;;4.63;0.68;;;2.60;99.90;;;;;;5017154;28;20061;-72
2023/03/05 06:10:26;;;;;;;6.78;1.00;;;2.60;99.90;;;;;;5013506;28;20022;-73
2023/03/05 06:12:52;;;;;;;4.22;1.13;;;2.60;99.90;;;;;;5022229;28;20026;-75
2023/03/05 06:15:18;;;;;;;4.40;0.90;;;2.60;99.90;;;;;;5012872;28;20022;-76
2023/03/05 06:17:46;;;;;;;4.60;0.80;;;2.70;99.90;;;;;;5013395;28;20410;-74
2023/03/05 06:20:12;;;;;;;6.43;1.30;;;2.60;99.90;;;;;;5019968;28;20099;-75
2023/03/05 06:22:39;;;;;;;5.90;0.60;;;2.60;99.90;;;;;;5010720;28;20034;-74
2023/03/05 06:25:07;;;;;;;7.10;2.38;;;2.60;99.90;;;;;;5016659;28;20088;-73
2023/03/05 06:27:36;;;;;;;2.58;0.60;;;2.50;99.90;;;;;;5014440;28;20160;-73
2023/03/05 06:30:02;;;;;;;3.92;0.77;;;2.60;99.90;;;;;;5017142;28;20026;-73
2023/03/05 06:32:28;;;;;;;5.70;0.63;;;2.60;99.90;;;;;;5025631;28;20382;-72
2023/03/05 06:34:54;;;;;;;3.00;0.68;;;2.60;99.90;;;;;;5015300;28;20029;-73
2023/03/05 06:37:19;;;;;;;4.15;0.70;;;2.60;99.90;;;;;;5014338;28;20030;-74
2023/03/05 06:39:45;;;;;;;1.63;0.40;;;2.60;99.90;;;;;;5015618;28;20484;-74
2023/03/05 06:42:11;;;;;;;4.68;0.70;;;2.70;99.90;;;;;;5026053;28;20060;-74
2023/03/05 06:44:40;;;;;;;2.75;0.40;;;2.70;99.90;;;;;;5022445;28;20438;-75
2023/03/05 06:47:09;;;;;;;2.58;0.52;;;2.70;99.90;;;;;;5032558;28;20151;-74
2023/03/05 06:49:35;;;;;;;5.60;0.80;;;2.70;99.90;;;;;;5016854;28;20049;-75
2023/03/05 06:52:01;;;;;;;4.13;0.93;;;2.70;99.90;;;;;;5013698;28;20038;-73
2023/03/05 06:54:27;;;;;;;3.85;0.80;;;2.70;99.90;;;;;;5014646;28;20041;-73
2023/03/05 06:56:52;;;;;;;5.20;1.08;;;2.70;99.90;;;;;;5024424;28;20031;-74
2023/03/05 06:59:18;;;;;;;7.38;0.82;;;2.70;99.90;;;;;;5031840;28;20036;-74
2023/03/05 07:01:44;;;;;;;3.67;1.08;;;2.80;99.90;;;;;;5027248;28;20088;-75
2023/03/05 07:04:11;;;;;;;2.03;0.50;;;2.80;99.90;;;;;;5013179;28;20095;-75
2023/03/05 07:06:37;;;;;;;5.88;0.68;;;2.70;99.90;;;;;;5012036;28;20112;-75
2023/03/05 07:09:05;;;;;;;4.57;0.88;;;2.70;99.90;;;;;;5025582;28;20393;-75
2023/03/05 07:11:31;;;;;;;2.30;1.10;;;2.70;99.90;;;;;;5024268;28;20026;-73
2023/03/05 07:13:57;;;;;;;5.10;0.80;;;2.70;99.90;;;;;;5011343;28;20026;-75
2023/03/05 07:16:26;;;;;;;2.28;0.75;;;2.70;99.90;;;;;;5025659;28;20026;-75
2023/03/05 07:18:53;;;;;;;5.88;1.00;;;2.70;99.90;;;;;;5043830;28;20026;-75
2023/03/05 07:21:24;;;;;;;3.10;1.00;;;2.80;99.90;;;;;;5031408;28;20037;-75
2023/03/05 07:23:52;;;;;;;3.58;0.90;;;2.80;99.90;;;;;;5031693;28;20025;-73
2023/03/05 07:26:19;;;;;;;2.75;0.60;;;2.80;99.90;;;;;;5030859;28;20099;-73
2023/03/05 07:28:44;;;;;;;5.63;1.00;;;2.80;99.90;;;;;;5030949;28;20244;-74
2023/03/05 07:31:25;;;;;;;4.43;1.33;;;2.80;99.90;;;;;;5031027;28;20068;-74
2023/03/05 07:33:51;;;;;;;13.88;1.10;;;2.80;99.90;;;;;;5040735;28;20022;-73
2023/03/05 07:36:18;;;;;;;7.50;1.85;;;2.90;99.90;;;;;;5013073;28;20099;-74
2023/03/05 07:38:44;;;;;;;4.20;0.88;;;2.90;99.90;;;;;;5030983;28;20147;-73
2023/03/05 07:41:13;;;;;;;3.60;0.80;;;3.00;99.90;;;;;;5032832;28;20033;-73
2023/03/05 07:43:39;;;;;;;6.07;1.00;;;3.00;99.90;;;;;;5030542;28;20040;-73
2023/03/05 07:46:10;;;;;;;7.32;1.15;;;3.10;99.90;;;;;;5029160;28;20025;-73
2023/03/05 07:48:35;;;;;;;;;;;3.10;99.90;;;;;;5030224;28;20026;-74
2023/03/05 07:51:03;;;;;;;6.35;0.70;;;3.10;99.90;;;;;;5006403;28;19911;-73
2023/03/05 07:53:29;;;;;;;6.75;0.93;;;3.10;99.90;;;;;;5029307;28;20530;-73
2023/03/05 07:55:55;;;;;;;5.50;1.10;;;3.00;99.90;;;;;;5028677;28;20303;-74
2023/03/05 07:58:21;;;;;;;5.50;1.42;;;2.90;99.90;;;;;;5028487;28;20053;-74
2023/03/05 08:00:48;;;;;;;4.43;2.10;;;2.90;99.90;;;;;;5029762;28;20358;-72
2023/03/05 08:03:13;;;;;;;7.35;1.67;;;2.90;99.90;;;;;;5028085;28;20018;-72
2023/03/05 08:05:40;;;;;;;7.63;1.65;;;2.90;99.90;;;;;;5028497;28;20022;-73
2023/03/05 08:08:06;;;;;;;6.35;1.85;;;3.00;99.90;;;;;;5026686;28;20057;-74
2023/03/05 08:10:33;;;;;;;6.28;1.90;;;3.00;99.90;;;;;;5029359;28;20461;-74
2023/03/05 08:12:59;;;;;;;4.10;1.25;;;3.10;99.90;;;;;;5026485;28;20033;-74
2023/03/05 08:15:24;;;;;;;7.43;1.70;;;3.20;99.90;;;;;;5026710;28;20076;-73
2023/03/05 08:17:50;;;;;;;4.80;1.38;;;3.20;99.90;;;;;;5025719;28;20402;-74
2023/03/05 08:20:18;;;;;;;8.82;1.20;;;3.30;99.90;;;;;;5025820;28;20033;-73
2023/03/05 08:22:44;;;;;;;7.22;1.58;;;3.30;99.90;;;;;;5024210;28;20079;-73
2023/03/05 08:25:10;;;;;;;7.32;1.83;;;3.40;99.90;;;;;;5020628;28;20493;-73
2023/03/05 08:27:41;;;;;;;7.50;1.70;;;3.30;99.90;;;;;;5019340;28;20482;-73
2023/03/05 08:30:10;;;;;;;5.07;1.30;;;3.30;99.90;;;;;;5021522;28;20053;-73
2023/03/05 08:32:35;;;;;;;3.95;1.70;;;3.30;99.90;;;;;;5021385;28;20116;-73
2023/03/05 08:35:03;;;;;;;7.20;1.25;;;3.20;99.90;;;;;;5025055;28;20167;-73
2023/03/05 08:37:29;;;;;;;6.35;1.60;;;3.20;99.90;;;;;;5026698;28;20037;-72
2023/03/05 08:39:56;;;;;;;4.18;1.60;;;3.30;99.90;;;;;;5025710;28;20512;-72
2023/03/05 08:42:23;;;;;;;4.32;1.20;;;3.30;99.90;;;;;;5026916;28;20033;-72
2023/03/05 08:44:49;;;;;;;3.72;1.08;;;3.40;99.90;;;;;;5024627;28;20580;-72
2023/03/05 08:47:15;;;;;;;6.85;1.63;;;3.50;99.90;;;;;;5024430;28;20104;-72
2023/03/05 08:49:40;;;;;;;2.97;1.35;;;3.50;99.90;;;;;;5026788;28;20033;-73
2023/03/05 08:52:06;;;;;;;8.82;2.42;;;3.60;99.90;;;;;;5021647;28;20272;-73
2023/03/05 08:54:33;;;;;;;7.80;2.10;;;3.60;99.90;;;;;;5024561;28;20068;-73
2023/03/05 08:56:58;;;;;;;5.47;1.80;;;3.60;99.90;;;;;;5027183;28;20108;-73
2023/03/05 08:59:24;;;;;;;7.15;2.15;;;3.70;99.90;;;;;;5027178;28;20121;-74
2023/03/05 09:01:50;;;;;;;5.93;1.80;;;3.80;99.90;;;;;;5018929;28;20030;-74
2023/03/05 09:04:16;;;;;;;6.28;1.65;;;3.80;99.90;;;;;;5021420;28;20088;-76
2023/03/05 09:06:41;;;;;;;5.03;2.13;;;3.90;99.90;;;;;;5021710;28;20465;-72
2023/03/05 09:09:09;;;;;;;3.70;1.25;;;4.00;99.90;;;;;;5022873;28;20033;-72
2023/03/05 09:11:35;;;;;;;7.80;1.95;;;4.00;99.90;;;;;;5020256;28;20088;-72
2023/03/05 09:14:03;;;;;;;5.97;1.20;;;4.00;99.90;;;;;;5022690;28;20401;-75
2023/03/05 09:16:29;;;;;;;5.18;1.00;;;4.00;99.90;;;;;;5023961;28;20112;-73
2023/03/05 09:18:54;;;;;;;6.07;1.48;;;4.10;99.90;;;;;;5026070;28;20137;-73
2023/03/05 09:21:20;;;;;;;5.32;1.23;;;4.10;99.90;;;;;;5022616;28;20056;-73
2023/03/05 09:23:46;;;;;;;8.48;1.38;;;4.10;99.90;;;;;;5010320;28;20485;-74
2023/03/05 09:26:14;;;;;;;3.58;1.08;;;4.30;99.90;;;;;;5019556;28;20507;-73
2023/03/05 09:28:41;;;;;;;6.15;1.17;;;4.20;99.90;;;;;;5017785;28;20030;-74
2023/03/05 09:31:08;;;;;;;6.18;1.95;;;4.20;99.90;;;;;;5025244;28;20481;-74
2023/03/05 09:33:35;;;;;;;4.68;1.25;;;4.20;99.90;;;;;;5003651;28;20397;-74
2023/03/05 09:36:01;;;;;;;5.20;1.40;;;4.20;99.90;;;;;;5004621;28;20053;-74
2023/03/05 09:38:27;;;;;;;6.28;1.00;;;4.20;99.90;;;;;;5022043;28;20076;-74
2023/03/05 09:41:25;;;;;;;7.30;1.13;;;4.40;99.90;;;;;;5025916;28;20512;-75
2023/03/05 09:44:34;;;;;;;4.05;0.98;;;4.50;99.90;;;;;;4990800;28;20039;-72
2023/03/05 09:47:33;;;;;;;8.95;1.63;;;4.60;99.90;;;;;;5022371;28;20030;-73
2023/03/05 09:50:37;;;;;;;7.00;0.75;;;4.50;99.90;;;;;;5019878;28;20053;-72
2023/03/05 09:53:34;;;;;;;4.63;0.82;;;4.40;99.90;;;;;;5012843;28;20032;-73
2023/03/05 09:56:26;;;;;;;10.63;1.95;;;4.30;99.90;;;;;;5018415;28;20622;-73
2023/03/05 09:58:57;;;;;;;4.07;0.88;;;4.30;99.90;;;;;;5013080;28;20132;-74
2023/03/05 10:01:30;;;;;;;6.22;1.00;;;4.00;99.90;;;;;;5020712;28;20525;-74
2023/03/05 10:04:16;;;;;;;9.93;1.08;;;3.80;99.90;;;;;;5020622;28;20022;-74
2023/03/05 10:06:47;;;;;;;10.50;1.45;;;3.60;99.90;;;;;;5014257;28;20179;-74
2023/03/05 10:09:16;;;;;;;;;;;3.40;99.90;;;;;;5033712;28;20021;-75
2023/03/05 10:11:59;;;;;;;5.15;1.30;;;3.40;99.90;;;;;;5023107;28;19905;-74
2023/03/05 10:14:31;;;;;;;4.82;1.42;;;3.30;99.90;;;;;;5026090;28;20482;-75
2023/03/05 10:16:57;;;;;;;7.38;2.00;;;3.20;99.90;;;;;;5015524;28;20516;-74
2023/03/05 10:19:47;;;;;;;5.18;1.80;;;3.20;99.90;;;;;;5028358;28;20061;-74
2023/03/05 10:22:16;;;;;;;5.45;2.15;;;3.20;99.90;;;;;;5040119;28;20030;-72
2023/03/05 10:25:10;;;;;;;7.15;2.15;;;3.20;99.90;;;;;;5021067;28;20092;-75
2023/03/05 10:27:50;;;;;;;7.53;2.28;;;3.20;99.90;;;;;;5018175;28;20057;-74
2023/03/05 10:30:37;;;;;;;6.53;1.95;;;3.10;99.90;;;;;;5014764;28;20513;-71
2023/03/05 10:33:10;;;;;;;5.40;1.75;;;3.20;99.90;;;;;;5026620;28;20026;-72
2023/03/05 10:35:54;;;;;;;9.20;2.10;;;3.20;99.90;;;;;;5027226;28;20032;-72
2023/03/05 10:38:40;;;;;;;5.63;1.75;;;3.30;99.90;;;;;;5021975;28;20441;-73
2023/03/05 10:41:19;;;;;;;7.82;2.08;;;3.30;99.90;;;;;;5024666;28;20025;-72
2023/03/05 10:43:59;;;;;;;13.75;1.60;;;3.70;99.90;;;;;;5020499;28;20062;-73
2023/03/05 10:46:33;;;;;;;3.67;1.30;;;4.80;99.90;;;;;;5006255;28;20025;-73
2023/03/05 10:49:11;;;;;;;7.47;1.55;;;4.70;99.90;;;;;;5023662;28;20018;-73
2023/03/05 10:51:47;;;;;;;5.65;1.45;;;4.70;99.90;;;;;;5008731;28;20028;-73
2023/03/05 10:54:28;;;;;;;3.97;1.50;;;5.30;99.90;;;;;;5022638;28;20033;-73
2023/03/05 10:57:12;;;;;;;6.50;1.63;;;5.50;99.90;;;;;;5022947;28;20027;-73
2023/03/05 10:59:49;;;;;;;5.85;1.02;;;5.70;99.90;;;;;;5028825;28;20104;-74
2023/03/05 11:02:15;;;;;;;9.23;1.40;;;6.40;99.90;;;;;;5022484;28;20378;-73
2023/03/05 11:04:41;;;;;;;4.25;1.17;;;7.00;99.90;;;;;;4998403;28;20033;-73
2023/03/05 11:07:15;;;;;;;7.47;1.13;;;7.30;99.90;;;;;;5017412;28;20033;-73
2023/03/05 11:09:42;;;;;;;4.35;0.90;;;7.20;99.90;;;;;;5023406;28;20076;-73
2023/03/05 11:12:25;;;;;;;1.73;0.85;;;7.10;99.90;;;;;;5020140;28;20029;-73
2023/03/05 11:15:08;;;;;;;6.65;1.38;;;8.20;99.90;;;;;;5015053;28;20061;-73
2023/03/05 11:17:41;;;;;;;6.60;1.75;;;7.90;99.90;;;;;;5022819;28;20030;-72
2023/03/05 11:20:30;;;;;;;4.40;0.98;;;7.40;99.90;;;;;;5021899;28;20406;-72
2023/03/05 11:23:19;;;;;;;4.82;1.00;;;6.60;99.90;;;;;;5014453;28;20058;-73
2023/03/05 11:25:56;;;;;;;5.60;1.73;;;5.80;99.90;;;;;;5019520;28;20034;-72
2023/03/05 11:28:28;;;;;;;3.95;0.90;;;5.20;99.90;;;;;;5023423;28;20109;-72
2023/03/05 11:31:14;;;;;;;2.63;0.85;;;5.00;99.90;;;;;;5015759;28;20054;-73
2023/03/05 11:33:57;;;;;;;4.43;1.10;;;5.00;99.90;;;;;;5012933;28;20038;-73
2023/03/05 11:36:43;;;;;;;3.17;0.98;;;5.40;99.90;;;;;;5020096;28;20030;-74
2023/03/05 11:39:15;;;;;;;3.20;1.00;;;6.10;99.90;;;;;;4955341;28;20089;-75
2023/03/05 11:41:44;;;;;;;3.88;0.85;;;6.50;99.90;;;;;;4958481;28;20043;-75
2023/03/05 11:44:21;;;;;;;1.58;0.80;;;6.40;99.90;;;;;;4971007;28;20051;-74
2023/03/05 11:46:52;;;;;;;2.63;0.85;;;6.50;99.90;;;;;;4970596;28;20113;-75
2023/03/05 11:49:20;;;;;;;;;;;6.70;99.90;;;;;;4955006;28;20027;-75
2023/03/05 11:52:19;;;;;;;1.67;0.80;;;6.70;99.90;;;;;;4954269;28;19917;-75
2023/03/05 11:54:52;;;;;;;2.63;1.00;;;7.00;99.90;;;;;;4950216;28;20042;-73
2023/03/05 11:57:20;;;;;;;3.47;0.80;;;7.10;99.90;;;;;;4969332;28;20078;-73
2023/03/05 11:59:46;;;;;;;3.97;0.82;;;6.90;99.90;;;;;;4971273;28;20035;-74
2023/03/05 12:02:19;;;;;;;3.78;1.10;;;6.80;99.60;;;;;;4954680;28;20038;-74
2023/03/05 12:04:46;;;;;;;3.78;1.02;;;6.60;99.70;;;;;;4970685;28;20050;-74
2023/03/05 12:07:17;;;;;;;2.92;0.90;;;6.50;99.00;;;;;;4970378;28;20081;-73
2023/03/05 12:09:49;;;;;;;6.50;1.10;;;6.50;97.90;;;;;;4970608;28;20046;-74
2023/03/05 12:12:31;;;;;;;3.95;0.82;;;6.40;99.30;;;;;;4971515;28;20030;-73
2023/03/05 12:15:11;;;;;;;2.88;0.75;;;6.30;99.10;;;;;;4971650;28;20034;-71
2023/03/05 12:18:09;;;;;;;5.32;0.80;;;5.90;99.90;;;;;;5020356;28;20030;-72
2023/03/05 12:21:00;;;;;;;2.97;0.73;;;5.80;99.90;;;;;;5029066;28;20033;-73
2023/03/05 12:23:27;;;;;;;2.30;0.80;;;5.50;99.90;;;;;;5022467;28;20042;-72
2023/03/05 12:25:55;;;;;;;8.57;1.33;;;5.70;99.90;;;;;;5029804;28;20500;-73
2023/03/05 12:28:33;;;;;;;2.42;0.70;;;5.80;99.90;;;;;;5029048;28;20095;-74
2023/03/05 12:31:22;;;;;;;5.25;0.70;;;5.90;99.90;;;;;;5030397;28;20086;-74
2023/03/05 12:33:48;;;;;;;7.07;0.60;;;6.00;99.90;;;;;;5026559;28;20092;-75
2023/03/05 12:36:16;;;;;;;9.23;1.25;;;6.00;99.90;;;;;;5027864;28;20041;-74
2023/03/05 12:38:53;;;;;;;190.60;92.20;;;6.00;99.90;;;;;;5027715;28;20029;-75
2023/03/05 12:41:21;;;;;;;134.20;77.40;;;6.20;99.90;;;;;;5027596;28;20112;-75
2023/03/05 12:44:05;;;;;;;16.73;10.10;;;6.20;99.90;;;;;;5011120;28;20033;-73
2023/03/05 12:46:39;;;;;;;22.65;12.40;;;5.90;99.90;;;;;;5028671;28;20025;-73
2023/03/05 12:49:17;;;;;;;4.63;1.15;;;5.80;99.90;;;;;;5030190;28;20025;-73
2023/03/05 12:51:44;;;;;;;3.05;0.73;;;5.70;99.90;;;;;;5029477;28;20068;-75
2023/03/05 12:54:38;;;;;;;5.03;0.60;;;5.60;98.60;;;;;;5020685;28;20556;-74
2023/03/05 12:57:18;;;;;;;1.83;0.60;;;5.50;99.10;;;;;;5027574;28;20033;-75
2023/03/05 12:59:50;;;;;;;3.33;0.80;;;5.60;99.10;;;;;;5026652;28;20401;-74
2023/03/05 13:02:42;;;;;;;3.33;0.50;;;5.50;99.80;;;;;;5030111;28;20053;-74
2023/03/05 13:05:24;;;;;;;2.08;0.85;;;5.40;99.90;;;;;;5026191;28;20052;-74
2023/03/05 13:07:50;;;;;;;1.95;0.40;;;5.60;99.90;;;;;;5014228;28;20074;-75
2023/03/05 13:10:22;;;;;;;2.53;0.95;;;5.80;99.90;;;;;;5031168;28;20026;-74